Terminal Aerodrome Forecast
Issued by NWS Blacksburg, VA

Current Version | Previous Version | Text Only | Print | Product List | Glossary Off
Versions: 1 2 3 4 5 6 7 8 9 10 11 12 13 14 15 16 17 18 19

000
FTUS41 KRNK 132334
TAFBLF
TAF
KBLF 132334Z 1400/1424 16010KT P6SM SCT120
     FM140700 17010G20KT P6SM SCT020 BKN100
     FM141200 17011KT P6SM SCT020 OVC100
     FM141900 20012G22KT P6SM -SHRA BKN025 OVC040=

USA.gov is the U.S. government's official web portal to all federal, state and local government web resources and services.